sensor_id;sensor_type;location;lat;lon;timestamp;pressure;altitude;pressure_sealevel;temperature;humidity
13015;BME280;6573;57.696;11.950;2022-07-01T00:01:04;101164.00;;;23.36;100.00
13015;BME280;6573;57.696;11.950;2022-07-01T00:03:32;101140.81;;;23.16;100.00
13015;BME280;6573;57.696;11.950;2022-07-01T00:06:02;101163.84;;;23.20;100.00
13015;BME280;6573;57.696;11.950;2022-07-01T00:08:31;101169.31;;;23.18;100.00
13015;BME280;6573;57.696;11.950;2022-07-01T00:10:59;101159.97;;;23.08;100.00
13015;BME280;6573;57.696;11.950;2022-07-01T00:13:30;101158.22;;;23.07;100.00
13015;BME280;6573;57.696;11.950;2022-07-01T00:15:58;101165.19;;;23.11;100.00
13015;BME280;6573;57.696;11.950;2022-07-01T00:18:26;101154.91;;;23.02;100.00
13015;BME280;6573;57.696;11.950;2022-07-01T00:20:55;101162.56;;;23.10;100.00
13015;BME280;6573;57.696;11.950;2022-07-01T00:23:23;101151.28;;;23.03;100.00
13015;BME280;6573;57.696;11.950;2022-07-01T00:25:51;101160.25;;;23.02;100.00
13015;BME280;6573;57.696;11.950;2022-07-01T00:28:20;101151.28;;;23.03;100.00
13015;BME280;6573;57.696;11.950;2022-07-01T00:30:50;101156.78;;;23.00;100.00
13015;BME280;6573;57.696;11.950;2022-07-01T00:33:18;101142.44;;;23.01;100.00
13015;BME280;6573;57.696;11.950;2022-07-01T00:35:47;101143.50;;;22.97;100.00
13015;BME280;6573;57.696;11.950;2022-07-01T00:38:15;101145.41;;;22.95;100.00
13015;BME280;6573;57.696;11.950;2022-07-01T00:40:44;101149.97;;;22.93;100.00
13015;BME280;6573;57.696;11.950;2022-07-01T00:43:12;101142.88;;;22.92;100.00
13015;BME280;6573;57.696;11.950;2022-07-01T00:45:44;101140.41;;;22.88;100.00
13015;BME280;6573;57.696;11.950;2022-07-01T00:48:14;101146.50;;;22.91;100.00
13015;BME280;6573;57.696;11.950;2022-07-01T00:50:44;101133.69;;;22.79;100.00
13015;BME280;6573;57.696;11.950;2022-07-01T00:53:12;101142.03;;;22.73;100.00
13015;BME280;6573;57.696;11.950;2022-07-01T00:55:42;101135.59;;;22.77;100.00
13015;BME280;6573;57.696;11.950;2022-07-01T00:58:10;101129.25;;;22.78;100.00
13015;BME280;6573;57.696;11.950;2022-07-01T01:00:38;101136.66;;;22.73;100.00
13015;BME280;6573;57.696;11.950;2022-07-01T01:03:08;101136.78;;;22.70;100.00
13015;BME280;6573;57.696;11.950;2022-07-01T01:05:40;101145.66;;;22.72;100.00
13015;BME280;6573;57.696;11.950;2022-07-01T01:08:09;101136.00;;;22.68;100.00
13015;BME280;6573;57.696;11.950;2022-07-01T01:10:38;101137.81;;;22.68;100.00
13015;BME280;6573;57.696;11.950;2022-07-01T01:13:06;101135.34;;;22.63;100.00
13015;BME280;6573;57.696;11.950;2022-07-01T01:15:36;101126.25;;;22.67;100.00
13015;BME280;6573;57.696;11.950;2022-07-01T01:18:05;101125.81;;;22.56;100.00
13015;BME280;6573;57.696;11.950;2022-07-01T01:20:36;101128.38;;;22.59;100.00
13015;BME280;6573;57.696;11.950;2022-07-01T01:23:05;101138.81;;;22.65;100.00
13015;BME280;6573;57.696;11.950;2022-07-01T01:25:34;101127.38;;;22.62;100.00
13015;BME280;6573;57.696;11.950;2022-07-01T01:28:03;101114.16;;;22.57;100.00
13015;BME280;6573;57.696;11.950;2022-07-01T01:30:31;101129.41;;;22.75;100.00
13015;BME280;6573;57.696;11.950;2022-07-01T01:33:00;101124.22;;;22.72;100.00
13015;BME280;6573;57.696;11.950;2022-07-01T01:35:28;101131.16;;;22.76;100.00
13015;BME280;6573;57.696;11.950;2022-07-01T01:37:59;101123.88;;;22.78;100.00
13015;BME280;6573;57.696;11.950;2022-07-01T01:40:28;101124.91;;;22.76;100.00
13015;BME280;6573;57.696;11.950;2022-07-01T01:42:56;101117.53;;;22.62;100.00
13015;BME280;6573;57.696;11.950;2022-07-01T01:45:25;101130.41;;;22.54;100.00
13015;BME280;6573;57.696;11.950;2022-07-01T01:47:55;101130.84;;;22.45;100.00
13015;BME280;6573;57.696;11.950;2022-07-01T01:50:23;101132.69;;;22.43;100.00
13015;BME280;6573;57.696;11.950;2022-07-01T01:52:52;101129.38;;;22.38;100.00
13015;BME280;6573;57.696;11.950;2022-07-01T01:55:21;101139.38;;;22.34;100.00
13015;BME280;6573;57.696;11.950;2022-07-01T01:57:50;101128.66;;;22.34;100.00
13015;BME280;6573;57.696;11.950;2022-07-01T02:00:19;101127.78;;;22.34;100.00
13015;BME280;6573;57.696;11.950;2022-07-01T02:02:47;101131.91;;;22.41;100.00
13015;BME280;6573;57.696;11.950;2022-07-01T02:05:15;101134.59;;;22.41;100.00
13015;BME280;6573;57.696;11.950;2022-07-01T02:07:44;101119.50;;;22.38;100.00
13015;BME280;6573;57.696;11.950;2022-07-01T02:10:12;101125.00;;;22.35;100.00
13015;BME280;6573;57.696;11.950;2022-07-01T02:12:42;101122.56;;;22.31;100.00
13015;BME280;6573;57.696;11.950;2022-07-01T02:15:11;101113.84;;;22.26;100.00
13015;BME280;6573;57.696;11.950;2022-07-01T02:17:39;101132.47;;;22.29;100.00
13015;BME280;6573;57.696;11.950;2022-07-01T02:20:08;101129.00;;;22.27;100.00
13015;BME280;6573;57.696;11.950;2022-07-01T02:22:37;101131.69;;;22.27;100.00
13015;BME280;6573;57.696;11.950;2022-07-01T02:25:06;101133.28;;;22.31;100.00
13015;BME280;6573;57.696;11.950;2022-07-01T02:27:34;101141.84;;;22.39;100.00
13015;BME280;6573;57.696;11.950;2022-07-01T02:30:06;101133.13;;;22.34;100.00
13015;BME280;6573;57.696;11.950;2022-07-01T02:32:35;101136.91;;;22.30;100.00
13015;BME280;6573;57.696;11.950;2022-07-01T02:35:04;101145.31;;;22.41;100.00
13015;BME280;6573;57.696;11.950;2022-07-01T02:37:32;101139.28;;;22.36;100.00
13015;BME280;6573;57.696;11.950;2022-07-01T02:40:02;101137.47;;;22.36;100.00
13015;BME280;6573;57.696;11.950;2022-07-01T02:42:30;101123.72;;;22.25;100.00
13015;BME280;6573;57.696;11.950;2022-07-01T02:45:02;101128.66;;;22.34;100.00
13015;BME280;6573;57.696;11.950;2022-07-01T02:47:33;101124.00;;;22.19;100.00
13015;BME280;6573;57.696;11.950;2022-07-01T02:50:05;101132.25;;;22.15;100.00
13015;BME280;6573;57.696;11.950;2022-07-01T02:52:34;101128.59;;;22.16;100.00
13015;BME280;6573;57.696;11.950;2022-07-01T02:55:04;101136.47;;;22.20;100.00
13015;BME280;6573;57.696;11.950;2022-07-01T02:57:33;101120.31;;;22.22;100.00
13015;BME280;6573;57.696;11.950;2022-07-01T03:00:04;101123.84;;;22.22;100.00
13015;BME280;6573;57.696;11.950;2022-07-01T03:02:34;101121.53;;;22.33;100.00
13015;BME280;6573;57.696;11.950;2022-07-01T03:05:03;101129.66;;;22.32;100.00
13015;BME280;6573;57.696;11.950;2022-07-01T03:07:32;101118.41;;;22.24;100.00
13015;BME280;6573;57.696;11.950;2022-07-01T03:10:04;101119.22;;;22.26;100.00
13015;BME280;6573;57.696;11.950;2022-07-01T03:12:33;101128.03;;;22.28;100.00
13015;BME280;6573;57.696;11.950;2022-07-01T03:15:04;101101.81;;;22.16;100.00
13015;BME280;6573;57.696;11.950;2022-07-01T03:17:35;101119.66;;;22.17;100.00
13015;BME280;6573;57.696;11.950;2022-07-01T03:20:06;101126.75;;;22.18;100.00
13015;BME280;6573;57.696;11.950;2022-07-01T03:22:36;101128.78;;;22.13;100.00
13015;BME280;6573;57.696;11.950;2022-07-01T03:25:06;101125.69;;;22.02;100.00
13015;BME280;6573;57.696;11.950;2022-07-01T03:27:35;101134.53;;;22.04;100.00
13015;BME280;6573;57.696;11.950;2022-07-01T03:30:05;101135.41;;;22.04;100.00
13015;BME280;6573;57.696;11.950;2022-07-01T03:32:35;101138.16;;;22.03;100.00
13015;BME280;6573;57.696;11.950;2022-07-01T03:35:04;101131.19;;;21.99;100.00
13015;BME280;6573;57.696;11.950;2022-07-01T03:37:54;101146.53;;;21.95;100.00
13015;BME280;6573;57.696;11.950;2022-07-01T03:40:22;101136.84;;;21.92;100.00
13015;BME280;6573;57.696;11.950;2022-07-01T03:42:51;101147.38;;;21.96;100.00
13015;BME280;6573;57.696;11.950;2022-07-01T03:45:19;101143.66;;;22.00;100.00
13015;BME280;6573;57.696;11.950;2022-07-01T03:47:49;101144.28;;;21.84;100.00
13015;BME280;6573;57.696;11.950;2022-07-01T03:50:21;101141.06;;;21.76;100.00
13015;BME280;6573;57.696;11.950;2022-07-01T03:52:51;101142.97;;;21.74;100.00
13015;BME280;6573;57.696;11.950;2022-07-01T03:55:41;101139.47;;;21.72;100.00
13015;BME280;6573;57.696;11.950;2022-07-01T03:58:08;101144.97;;;21.69;100.00
13015;BME280;6573;57.696;11.950;2022-07-01T04:00:37;101141.63;;;21.64;100.00
13015;BME280;6573;57.696;11.950;2022-07-01T04:03:07;101141.63;;;21.64;100.00
13015;BME280;6573;57.696;11.950;2022-07-01T04:05:37;101130.66;;;21.70;100.00
13015;BME280;6573;57.696;11.950;2022-07-01T04:08:07;101130.50;;;21.73;100.00
13015;BME280;6573;57.696;11.950;2022-07-01T04:10:39;101124.34;;;21.71;100.00
13015;BME280;6573;57.696;11.950;2022-07-01T04:13:08;101134.00;;;21.75;100.00
13015;BME280;6573;57.696;11.950;2022-07-01T04:15:57;101114.72;;;21.67;100.00
13015;BME280;6573;57.696;11.950;2022-07-01T04:18:28;101119.66;;;21.76;100.00
13015;BME280;6573;57.696;11.950;2022-07-01T04:20:56;101123.00;;;21.81;100.00
13015;BME280;6573;57.696;11.950;2022-07-01T04:23:42;101126.81;;;21.76;100.00
13015;BME280;6573;57.696;11.950;2022-07-01T04:26:10;101131.16;;;21.78;100.00
13015;BME280;6573;57.696;11.950;2022-07-01T04:28:59;101114.28;;;21.76;100.00
13015;BME280;6573;57.696;11.950;2022-07-01T04:31:27;101111.41;;;21.81;100.00
13015;BME280;6573;57.696;11.950;2022-07-01T04:33:58;101105.03;;;21.83;100.00
13015;BME280;6573;57.696;11.950;2022-07-01T04:36:27;101104.69;;;21.92;100.00
13015;BME280;6573;57.696;11.950;2022-07-01T04:38:55;101099.31;;;21.92;100.00
13015;BME280;6573;57.696;11.950;2022-07-01T04:41:23;101101.72;;;21.99;100.00
13015;BME280;6573;57.696;11.950;2022-07-01T04:44:10;101099.16;;;21.96;100.00
13015;BME280;6573;57.696;11.950;2022-07-01T04:46:39;101108.47;;;22.07;100.00
13015;BME280;6573;57.696;11.950;2022-07-01T04:49:09;101104.25;;;22.02;100.00
13015;BME280;6573;57.696;11.950;2022-07-01T04:51:38;101106.81;;;22.05;100.00
13015;BME280;6573;57.696;11.950;2022-07-01T04:54:07;101096.75;;;22.10;100.00
13015;BME280;6573;57.696;11.950;2022-07-01T04:56:36;101106.72;;;22.06;100.00
13015;BME280;6573;57.696;11.950;2022-07-01T04:59:10;101100.34;;;22.09;100.00
13015;BME280;6573;57.696;11.950;2022-07-01T05:01:38;101106.59;;;22.09;100.00
13015;BME280;6573;57.696;11.950;2022-07-01T05:04:08;101097.41;;;22.15;100.00
13015;BME280;6573;57.696;11.950;2022-07-01T05:06:37;101101.81;;;22.16;100.00
13015;BME280;6573;57.696;11.950;2022-07-01T05:09:05;101093.94;;;22.13;100.00
13015;BME280;6573;57.696;11.950;2022-07-01T05:11:34;101099.78;;;22.21;100.00
13015;BME280;6573;57.696;11.950;2022-07-01T05:14:05;101095.75;;;22.31;100.00
13015;BME280;6573;57.696;11.950;2022-07-01T05:16:34;101098.28;;;22.34;100.00
13015;BME280;6573;57.696;11.950;2022-07-01T05:19:03;101111.41;;;22.40;100.00
13015;BME280;6573;57.696;11.950;2022-07-01T05:21:50;101106.72;;;22.45;100.00
13015;BME280;6573;57.696;11.950;2022-07-01T05:24:28;101102.28;;;22.44;100.00
13015;BME280;6573;57.696;11.950;2022-07-01T05:26:58;101111.13;;;22.46;100.00
13015;BME280;6573;57.696;11.950;2022-07-01T05:29:27;101102.41;;;22.41;100.00
13015;BME280;6573;57.696;11.950;2022-07-01T05:31:56;101117.91;;;22.53;100.00
13015;BME280;6573;57.696;11.950;2022-07-01T05:34:24;101121.56;;;22.52;100.00
13015;BME280;6573;57.696;11.950;2022-07-01T05:36:54;101119.09;;;22.47;100.00
13015;BME280;6573;57.696;11.950;2022-07-01T05:39:22;101124.25;;;22.52;100.00
13015;BME280;6573;57.696;11.950;2022-07-01T05:41:52;101132.94;;;22.57;100.00
13015;BME280;6573;57.696;11.950;2022-07-01T05:44:20;101125.19;;;22.51;100.00
13015;BME280;6573;57.696;11.950;2022-07-01T05:46:49;101133.63;;;22.62;100.00
13015;BME280;6573;57.696;11.950;2022-07-01T05:49:17;101148.63;;;22.66;100.00
13015;BME280;6573;57.696;11.950;2022-07-01T05:51:46;101141.38;;;22.68;100.00
13015;BME280;6573;57.696;11.950;2022-07-01T05:54:15;101151.59;;;22.79;100.00
13015;BME280;6573;57.696;11.950;2022-07-01T05:56:43;101151.44;;;22.82;100.00
13015;BME280;6573;57.696;11.950;2022-07-01T05:59:12;101153.50;;;22.77;100.00
13015;BME280;6573;57.696;11.950;2022-07-01T06:01:41;101146.47;;;22.74;100.00
13015;BME280;6573;57.696;11.950;2022-07-01T06:04:09;101154.63;;;22.71;100.00
13015;BME280;6573;57.696;11.950;2022-07-01T06:06:38;101154.50;;;22.74;100.00
13015;BME280;6573;57.696;11.950;2022-07-01T06:09:06;101153.63;;;22.74;100.00
13015;BME280;6573;57.696;11.950;2022-07-01T06:11:36;101129.72;;;22.69;100.00
13015;BME280;6573;57.696;11.950;2022-07-01T06:14:04;101150.59;;;22.81;100.00
13015;BME280;6573;57.696;11.950;2022-07-01T06:16:33;101141.09;;;22.74;100.00
13015;BME280;6573;57.696;11.950;2022-07-01T06:19:01;101140.94;;;22.77;100.00
13015;BME280;6573;57.696;11.950;2022-07-01T06:21:30;101140.00;;;22.78;100.00
13015;BME280;6573;57.696;11.950;2022-07-01T06:23:58;101131.16;;;22.76;100.00
13015;BME280;6573;57.696;11.950;2022-07-01T06:26:26;101134.47;;;22.81;100.00
13015;BME280;6573;57.696;11.950;2022-07-01T06:28:56;101143.03;;;22.89;100.00
13015;BME280;6573;57.696;11.950;2022-07-01T06:31:24;101138.47;;;22.91;100.00
13015;BME280;6573;57.696;11.950;2022-07-01T06:33:53;101137.50;;;22.92;100.00
13015;BME280;6573;57.696;11.950;2022-07-01T06:36:21;101137.66;;;22.89;100.00
13015;BME280;6573;57.696;11.950;2022-07-01T06:38:49;101143.19;;;22.86;100.00
13015;BME280;6573;57.696;11.950;2022-07-01T06:41:18;101140.72;;;22.82;100.00
13015;BME280;6573;57.696;11.950;2022-07-01T06:43:58;101145.22;;;22.81;100.00
13015;BME280;6573;57.696;11.950;2022-07-01T06:46:27;101146.66;;;22.88;100.00
13015;BME280;6573;57.696;11.950;2022-07-01T06:48:56;101139.56;;;22.87;100.00
13015;BME280;6573;57.696;11.950;2022-07-01T06:51:25;101135.78;;;22.91;100.00
13015;BME280;6573;57.696;11.950;2022-07-01T06:53:54;101141.16;;;22.91;100.00
13015;BME280;6573;57.696;11.950;2022-07-01T06:56:23;101139.09;;;22.96;100.00
13015;BME280;6573;57.696;11.950;2022-07-01T06:58:51;101135.47;;;22.97;100.00
13015;BME280;6573;57.696;11.950;2022-07-01T07:01:21;101134.16;;;23.06;100.00
13015;BME280;6573;57.696;11.950;2022-07-01T07:03:49;101136.59;;;23.10;100.00
13015;BME280;6573;57.696;11.950;2022-07-01T07:06:18;101131.25;;;23.10;100.00
13015;BME280;6573;57.696;11.950;2022-07-01T07:08:46;101143.13;;;23.24;100.00
13015;BME280;6573;57.696;11.950;2022-07-01T07:11:14;101144.69;;;23.28;100.00
13015;BME280;6573;57.696;11.950;2022-07-01T07:13:43;101141.22;;;23.26;100.00
13015;BME280;6573;57.696;11.950;2022-07-01T07:16:11;101144.53;;;23.31;100.00
13015;BME280;6573;57.696;11.950;2022-07-01T07:18:41;101151.50;;;23.35;100.00
13015;BME280;6573;57.696;11.950;2022-07-01T07:21:09;101140.34;;;23.44;100.00
13015;BME280;6573;57.696;11.950;2022-07-01T07:23:38;101135.84;;;23.44;100.00
13015;BME280;6573;57.696;11.950;2022-07-01T07:26:06;101125.50;;;23.54;100.00
13015;BME280;6573;57.696;11.950;2022-07-01T07:28:34;101139.72;;;23.56;100.00
13015;BME280;6573;57.696;11.950;2022-07-01T07:31:03;101145.88;;;23.58;100.00
13015;BME280;6573;57.696;11.950;2022-07-01T07:33:31;101148.25;;;23.64;100.00
13015;BME280;6573;57.696;11.950;2022-07-01T07:36:01;101133.22;;;23.77;100.00
13015;BME280;6573;57.696;11.950;2022-07-01T07:38:30;101137.88;;;24.40;100.00
13015;BME280;6573;57.696;11.950;2022-07-01T07:40:58;101126.91;;;24.92;100.00
13015;BME280;6573;57.696;11.950;2022-07-01T07:43:31;101125.09;;;25.53;100.00
13015;BME280;6573;57.696;11.950;2022-07-01T07:45:59;101131.16;;;26.01;100.00
13015;BME280;6573;57.696;11.950;2022-07-01T07:48:28;101121.41;;;26.42;100.00
13015;BME280;6573;57.696;11.950;2022-07-01T07:50:57;101124.25;;;26.81;100.00
13015;BME280;6573;57.696;11.950;2022-07-01T07:53:26;101130.63;;;27.07;100.00
13015;BME280;6573;57.696;11.950;2022-07-01T07:55:55;101132.53;;;27.32;100.00
13015;BME280;6573;57.696;11.950;2022-07-01T07:58:25;101128.56;;;28.03;100.00
13015;BME280;6573;57.696;11.950;2022-07-01T08:00:53;101122.47;;;28.63;100.00
13015;BME280;6573;57.696;11.950;2022-07-01T08:03:21;101125.16;;;28.99;100.00
13015;BME280;6573;57.696;11.950;2022-07-01T08:05:50;101123.72;;;28.70;100.00
13015;BME280;6573;57.696;11.950;2022-07-01T08:08:19;101122.59;;;28.85;100.00
13015;BME280;6573;57.696;11.950;2022-07-01T08:10:50;101122.34;;;28.88;100.00
13015;BME280;6573;57.696;11.950;2022-07-01T08:13:19;101123.94;;;28.67;100.00
13015;BME280;6573;57.696;11.950;2022-07-01T08:15:47;101127.13;;;28.36;100.00
13015;BME280;6573;57.696;11.950;2022-07-01T08:18:16;101119.88;;;28.11;100.00
13015;BME280;6573;57.696;11.950;2022-07-01T08:20:44;101120.53;;;28.14;100.00
13015;BME280;6573;57.696;11.950;2022-07-01T08:23:13;101127.00;;;28.24;100.00
13015;BME280;6573;57.696;11.950;2022-07-01T08:25:41;101117.47;;;28.32;100.00
13015;BME280;6573;57.696;11.950;2022-07-01T08:28:11;101116.94;;;28.01;100.00
13015;BME280;6573;57.696;11.950;2022-07-01T08:30:39;101122.03;;;27.93;100.00
13015;BME280;6573;57.696;11.950;2022-07-01T08:33:08;101123.13;;;28.03;100.00
13015;BME280;6573;57.696;11.950;2022-07-01T08:35:37;101123.50;;;27.72;100.00
13015;BME280;6573;57.696;11.950;2022-07-01T08:38:06;101127.78;;;27.49;100.00
13015;BME280;6573;57.696;11.950;2022-07-01T08:40:35;101131.06;;;27.67;100.00
13015;BME280;6573;57.696;11.950;2022-07-01T08:43:05;101125.84;;;27.64;100.00
13015;BME280;6573;57.696;11.950;2022-07-01T08:45:35;101128.00;;;27.59;100.00
13015;BME280;6573;57.696;11.950;2022-07-01T08:48:05;101144.03;;;27.62;100.00
13015;BME280;6573;57.696;11.950;2022-07-01T08:50:36;101138.41;;;27.65;100.00
13015;BME280;6573;57.696;11.950;2022-07-01T08:53:06;101134.06;;;27.50;100.00
13015;BME280;6573;57.696;11.950;2022-07-01T08:55:35;101144.88;;;27.50;100.00
13015;BME280;6573;57.696;11.950;2022-07-01T08:58:26;101146.59;;;27.51;100.00
13015;BME280;6573;57.696;11.950;2022-07-01T09:01:11;101152.47;;;27.70;100.00
13015;BME280;6573;57.696;11.950;2022-07-01T09:03:40;101149.47;;;27.87;100.00
13015;BME280;6573;57.696;11.950;2022-07-01T09:06:14;101151.63;;;27.82;100.00
13015;BME280;6573;57.696;11.950;2022-07-01T09:08:43;101141.47;;;27.73;100.00
13015;BME280;6573;57.696;11.950;2022-07-01T09:11:13;101153.38;;;27.83;100.00
13015;BME280;6573;57.696;11.950;2022-07-01T09:13:41;101165.03;;;27.84;100.00
13015;BME280;6573;57.696;11.950;2022-07-01T09:16:13;101164.59;;;27.77;100.00
13015;BME280;6573;57.696;11.950;2022-07-01T09:18:59;101162.84;;;27.76;100.00
13015;BME280;6573;57.696;11.950;2022-07-01T09:21:31;101168.97;;;27.92;100.00
13015;BME280;6573;57.696;11.950;2022-07-01T09:24:05;101155.31;;;27.69;100.00
13015;BME280;6573;57.696;11.950;2022-07-01T09:26:52;101167.66;;;27.32;100.00
13015;BME280;6573;57.696;11.950;2022-07-01T09:29:25;101174.72;;;27.48;100.00
13015;BME280;6573;57.696;11.950;2022-07-01T09:31:55;101177.16;;;27.25;100.00
13015;BME280;6573;57.696;11.950;2022-07-01T09:34:24;101171.56;;;27.28;100.00
13015;BME280;6573;57.696;11.950;2022-07-01T09:36:54;101178.38;;;27.47;100.00
13015;BME280;6573;57.696;11.950;2022-07-01T09:39:22;101166.03;;;27.03;100.00
13015;BME280;6573;57.696;11.950;2022-07-01T09:42:06;101177.34;;;26.95;100.00
13015;BME280;6573;57.696;11.950;2022-07-01T09:44:35;101181.25;;;27.18;100.00
13015;BME280;6573;57.696;11.950;2022-07-01T09:47:14;101174.56;;;26.82;100.00
13015;BME280;6573;57.696;11.950;2022-07-01T09:49:43;101190.19;;;26.63;100.00
13015;BME280;6573;57.696;11.950;2022-07-01T09:52:12;101186.91;;;26.86;100.00
13015;BME280;6573;57.696;11.950;2022-07-01T09:54:40;101185.34;;;26.68;100.00
13015;BME280;6573;57.696;11.950;2022-07-01T09:57:09;101188.66;;;26.59;100.00
13015;BME280;6573;57.696;11.950;2022-07-01T09:59:37;101182.84;;;26.65;100.00
13015;BME280;6573;57.696;11.950;2022-07-01T10:02:07;101176.31;;;26.83;100.00
13015;BME280;6573;57.696;11.950;2022-07-01T10:04:40;101177.44;;;26.93;100.00
13015;BME280;6573;57.696;11.950;2022-07-01T10:07:22;101179.41;;;26.91;100.00
13015;BME280;6573;57.696;11.950;2022-07-01T10:10:09;101166.78;;;27.05;100.00
13015;BME280;6573;57.696;11.950;2022-07-01T10:12:42;101176.13;;;26.86;100.00
13015;BME280;6573;57.696;11.950;2022-07-01T10:15:11;101179.19;;;26.66;100.00
13015;BME280;6573;57.696;11.950;2022-07-01T10:17:45;101171.09;;;26.80;100.00
13015;BME280;6573;57.696;11.950;2022-07-01T10:20:17;101170.91;;;26.83;100.00
13015;BME280;6573;57.696;11.950;2022-07-01T10:22:50;101165.91;;;26.77;100.00
13015;BME280;6573;57.696;11.950;2022-07-01T10:25:40;101164.94;;;26.78;100.00
13015;BME280;6573;57.696;11.950;2022-07-01T10:28:16;101165.16;;;27.02;100.00
13015;BME280;6573;57.696;11.950;2022-07-01T10:30:59;101159.91;;;26.86;100.00
13015;BME280;6573;57.696;11.950;2022-07-01T10:33:30;101167.41;;;26.95;100.00
13015;BME280;6573;57.696;11.950;2022-07-01T10:36:13;101162.41;;;26.75;100.00
13015;BME280;6573;57.696;11.950;2022-07-01T10:39:08;101152.78;;;26.85;100.00
13015;BME280;6573;57.696;11.950;2022-07-01T10:41:39;101159.50;;;27.07;100.00
13015;BME280;6573;57.696;11.950;2022-07-01T10:44:09;101159.19;;;27.11;100.00
13015;BME280;6573;57.696;11.950;2022-07-01T10:46:43;101164.63;;;27.24;100.00
13015;BME280;6573;57.696;11.950;2022-07-01T10:49:13;101156.66;;;27.35;100.00
13015;BME280;6573;57.696;11.950;2022-07-01T10:51:45;101164.88;;;27.33;100.00
13015;BME280;6573;57.696;11.950;2022-07-01T10:54:45;101154.78;;;26.96;100.00
13015;BME280;6573;57.696;11.950;2022-07-01T10:57:36;101154.28;;;26.89;100.00
13015;BME280;6573;57.696;11.950;2022-07-01T11:00:25;101161.19;;;26.81;100.00
13015;BME280;6573;57.696;11.950;2022-07-01T11:03:22;101147.38;;;26.85;100.00
13015;BME280;6573;57.696;11.950;2022-07-01T11:05:53;101145.84;;;26.81;100.00
13015;BME280;6573;57.696;11.950;2022-07-01T11:08:24;101151.25;;;26.81;100.00
13015;BME280;6573;57.696;11.950;2022-07-01T11:10:58;101150.25;;;26.82;100.00
13015;BME280;6573;57.696;11.950;2022-07-01T11:13:29;101147.56;;;26.82;100.00
13015;BME280;6573;57.696;11.950;2022-07-01T11:15:59;101146.75;;;26.94;100.00
13015;BME280;6573;57.696;11.950;2022-07-01T11:18:27;101139.22;;;26.99;100.00
13015;BME280;6573;57.696;11.950;2022-07-01T11:21:05;101139.44;;;26.96;100.00
13015;BME280;6573;57.696;11.950;2022-07-01T11:23:35;101146.03;;;26.78;100.00
13015;BME280;6573;57.696;11.950;2022-07-01T11:26:19;101141.78;;;26.88;100.00
13015;BME280;6573;57.696;11.950;2022-07-01T11:28:48;101143.09;;;26.95;100.00
13015;BME280;6573;57.696;11.950;2022-07-01T11:31:26;101149.03;;;27.15;100.00
13015;BME280;6573;57.696;11.950;2022-07-01T11:33:56;101147.31;;;27.14;100.00
13015;BME280;6573;57.696;11.950;2022-07-01T11:36:25;101143.41;;;27.18;100.00
13015;BME280;6573;57.696;11.950;2022-07-01T11:39:13;101158.09;;;27.14;100.00
13015;BME280;6573;57.696;11.950;2022-07-01T11:41:54;101146.88;;;27.20;100.00
13015;BME280;6573;57.696;11.950;2022-07-01T11:44:34;101147.56;;;27.23;100.00
13015;BME280;6573;57.696;11.950;2022-07-01T11:47:04;101150.34;;;27.22;100.00
13015;BME280;6573;57.696;11.950;2022-07-01T11:49:34;101155.97;;;27.19;100.00
13015;BME280;6573;57.696;11.950;2022-07-01T11:52:05;101141.69;;;27.17;100.00
13015;BME280;6573;57.696;11.950;2022-07-01T11:54:37;101139.84;;;26.90;100.00
13015;BME280;6573;57.696;11.950;2022-07-01T11:57:10;101151.25;;;26.81;100.00
13015;BME280;6573;57.696;11.950;2022-07-01T11:59:40;101155.44;;;26.99;100.00
13015;BME280;6573;57.696;11.950;2022-07-01T12:02:12;101156.91;;;26.91;100.00
13015;BME280;6573;57.696;11.950;2022-07-01T12:04:42;101150.63;;;26.90;100.00
13015;BME280;6573;57.696;11.950;2022-07-01T12:07:12;101152.72;;;27.14;100.00
13015;BME280;6573;57.696;11.950;2022-07-01T12:09:42;101146.06;;;27.32;100.00
13015;BME280;6573;57.696;11.950;2022-07-01T12:12:18;101153.84;;;27.24;100.00
13015;BME280;6573;57.696;11.950;2022-07-01T12:14:51;101160.75;;;27.28;100.00
13015;BME280;6573;57.696;11.950;2022-07-01T12:17:20;101162.78;;;26.97;100.00
13015;BME280;6573;57.696;11.950;2022-07-01T12:19:50;101153.91;;;26.95;100.00
13015;BME280;6573;57.696;11.950;2022-07-01T12:22:20;101150.84;;;26.87;100.00
13015;BME280;6573;57.696;11.950;2022-07-01T12:25:05;101141.16;;;26.97;100.00
13015;BME280;6573;57.696;11.950;2022-07-01T12:27:35;101151.78;;;27.01;100.00
13015;BME280;6573;57.696;11.950;2022-07-01T12:30:07;101139.16;;;26.87;100.00
13015;BME280;6573;57.696;11.950;2022-07-01T12:32:39;101158.50;;;27.08;100.00
13015;BME280;6573;57.696;11.950;2022-07-01T12:35:09;101152.91;;;27.11;100.00
13015;BME280;6573;57.696;11.950;2022-07-01T12:37:58;101154.63;;;27.12;100.00
13015;BME280;6573;57.696;11.950;2022-07-01T12:40:30;101146.00;;;26.92;100.00
13015;BME280;6573;57.696;11.950;2022-07-01T12:42:58;101150.84;;;26.87;100.00
13015;BME280;6573;57.696;11.950;2022-07-01T12:45:39;101155.28;;;26.60;100.00
13015;BME280;6573;57.696;11.950;2022-07-01T12:48:08;101170.31;;;26.50;100.00
13015;BME280;6573;57.696;11.950;2022-07-01T12:50:36;101170.34;;;26.64;100.00
13015;BME280;6573;57.696;11.950;2022-07-01T12:53:06;101165.50;;;26.69;100.00
13015;BME280;6573;57.696;11.950;2022-07-01T12:55:37;101158.16;;;26.57;100.00
13015;BME280;6573;57.696;11.950;2022-07-01T12:58:08;101174.94;;;26.48;100.00
13015;BME280;6573;57.696;11.950;2022-07-01T13:00:38;101184.00;;;26.47;100.00